createdAt,value
2022-10-31T00:01:58.695Z,30.40
2022-10-31T00:04:00.501Z,33.45
2022-10-31T00:06:02.705Z,30.17
2022-10-31T00:08:04.196Z,31.42
2022-10-31T00:10:06.521Z,28.00
2022-10-31T00:12:08.087Z,28.30
2022-10-31T00:14:09.711Z,26.45
2022-10-31T00:16:19.177Z,24.27
2022-10-31T00:18:20.680Z,23.50
2022-10-31T00:20:22.198Z,24.95
2022-10-31T00:22:23.691Z,24.02
2022-10-31T00:24:25.222Z,23.95
2022-10-31T00:26:31.238Z,24.88
2022-10-31T00:28:33.201Z,24.38
2022-10-31T00:30:35.161Z,25.05
2022-10-31T00:32:36.694Z,26.60
2022-10-31T00:34:38.129Z,32.13
2022-10-31T00:36:39.724Z,32.78
2022-10-31T00:38:41.808Z,31.67
2022-10-31T00:40:43.356Z,30.67
2022-10-31T00:42:44.872Z,33.92
2022-10-31T00:44:46.421Z,34.47
2022-10-31T00:46:47.870Z,44.70
2022-10-31T00:48:49.335Z,51.60
2022-10-31T00:50:50.820Z,49.80
2022-10-31T00:52:52.290Z,56.20
2022-10-31T00:54:53.879Z,52.15
2022-10-31T00:56:55.383Z,50.90
2022-10-31T00:58:57.060Z,42.08
2022-10-31T01:00:59.023Z,44.53
2022-10-31T01:03:01.339Z,43.50
2022-10-31T01:05:03.280Z,42.47
2022-10-31T01:07:05.007Z,39.65
2022-10-31T01:09:06.742Z,39.47
2022-10-31T01:11:12.472Z,40.83
2022-10-31T01:13:14.298Z,59.83
2022-10-31T01:15:20.244Z,56.65
2022-10-31T01:17:22.035Z,50.90
2022-10-31T01:19:23.797Z,46.78
2022-10-31T01:21:34.385Z,45.88
2022-10-31T01:23:36.451Z,45.53
2022-10-31T01:25:41.618Z,43.78
2022-10-31T01:27:43.230Z,38.88
2022-10-31T01:29:44.671Z,34.42
2022-10-31T01:31:46.201Z,32.83
2022-10-31T01:33:48.176Z,32.58
2022-10-31T01:35:49.634Z,34.70
2022-10-31T01:37:51.071Z,31.23
2022-10-31T01:39:52.511Z,34.15
2022-10-31T01:41:55.256Z,37.05
2022-10-31T01:44:02.183Z,38.83
2022-10-31T01:46:03.698Z,34.25
2022-10-31T01:48:05.379Z,39.28
2022-10-31T01:50:16.349Z,33.83
2022-10-31T01:52:44.835Z,29.70
2022-10-31T01:54:57.107Z,31.52
2022-10-31T01:56:59.579Z,33.45
2022-10-31T01:59:03.788Z,37.70
2022-10-31T02:01:07.936Z,38.90
2022-10-31T02:03:10.547Z,36.88
2022-10-31T02:05:17.178Z,35.33
2022-10-31T02:07:27.754Z,34.13
2022-10-31T02:09:31.776Z,31.83
2022-10-31T02:11:35.675Z,30.27
2022-10-31T02:13:38.567Z,30.90
2022-10-31T02:15:41.681Z,32.00
2022-10-31T02:17:43.196Z,30.88
2022-10-31T02:20:13.703Z,31.98
2022-10-31T02:22:26.789Z,35.85
2022-10-31T02:24:43.925Z,34.15
2022-10-31T02:27:00.407Z,33.40
2022-10-31T02:29:14.139Z,38.65
2022-10-31T02:31:43.577Z,42.10
2022-10-31T02:33:52.775Z,39.58
2022-10-31T02:36:03.884Z,39.67
2022-10-31T02:38:43.551Z,37.97
2022-10-31T02:41:00.557Z,36.55
2022-10-31T02:45:38.340Z,36.03
2022-10-31T02:47:40.086Z,36.75
2022-10-31T02:49:51.387Z,37.47
2022-10-31T02:51:53.238Z,35.88
2022-10-31T02:53:54.701Z,35.85
2022-10-31T02:56:00.559Z,38.55
2022-10-31T02:58:12.901Z,40.78
2022-10-31T03:00:14.686Z,41.08
2022-10-31T03:02:48.063Z,37.70
2022-10-31T03:04:52.482Z,39.17
2022-10-31T03:07:16.239Z,40.13
2022-10-31T03:09:38.939Z,40.00
2022-10-31T03:12:20.899Z,37.70
2022-10-31T03:14:30.710Z,32.72
2022-10-31T03:19:09.510Z,30.00
2022-10-31T03:21:18.789Z,33.10
2022-10-31T03:23:22.900Z,35.38
2022-10-31T03:25:24.922Z,36.13
2022-10-31T03:27:28.371Z,39.47
2022-10-31T03:29:35.656Z,40.38
2022-10-31T03:31:43.717Z,38.78
2022-10-31T03:33:46.786Z,38.90
2022-10-31T03:35:51.172Z,37.15
2022-10-31T03:37:54.488Z,44.92
2022-10-31T03:39:59.524Z,46.55
2022-10-31T03:42:06.329Z,43.05
2022-10-31T03:44:11.959Z,50.05
2022-10-31T03:46:13.756Z,46.58
2022-10-31T03:48:17.125Z,46.22
2022-10-31T03:50:20.595Z,44.30
2022-10-31T03:52:32.375Z,39.78
2022-10-31T03:54:44.660Z,39.45
2022-10-31T03:56:53.036Z,40.15
2022-10-31T03:59:06.440Z,37.15
2022-10-31T04:01:13.031Z,35.80
2022-10-31T04:03:23.431Z,36.00
2022-10-31T04:05:25.359Z,30.15
2022-10-31T04:07:31.698Z,39.65
2022-10-31T04:09:36.134Z,49.67
2022-10-31T04:11:44.082Z,41.35
2022-10-31T04:13:49.124Z,37.63
2022-10-31T04:15:53.238Z,34.67
2022-10-31T04:17:59.396Z,29.05
2022-10-31T04:20:01.802Z,31.30
2022-10-31T04:22:03.533Z,30.13
2022-10-31T04:24:05.389Z,28.85
2022-10-31T04:26:07.062Z,27.15
2022-10-31T04:28:08.650Z,29.88
2022-10-31T04:30:10.670Z,35.30
2022-10-31T04:32:12.139Z,83.10
2022-10-31T04:34:13.660Z,70.30
2022-10-31T04:36:15.193Z,109.88
2022-10-31T04:38:16.715Z,77.80
2022-10-31T04:40:18.176Z,48.92
2022-10-31T04:42:19.668Z,32.03
2022-10-31T04:44:21.420Z,31.48
2022-10-31T04:46:22.932Z,30.70
2022-10-31T04:48:24.384Z,36.92
2022-10-31T04:50:25.900Z,45.70
2022-10-31T04:52:27.472Z,66.90
2022-10-31T04:54:28.938Z,66.97
2022-10-31T04:56:30.637Z,64.80
2022-10-31T04:58:32.110Z,55.38
2022-10-31T05:00:33.546Z,45.50
2022-10-31T05:02:35.007Z,36.80
2022-10-31T05:04:36.436Z,39.97
2022-10-31T05:06:37.946Z,49.88
2022-10-31T05:08:39.452Z,109.85
2022-10-31T05:10:41.283Z,176.10
2022-10-31T05:12:50.322Z,236.93
2022-10-31T05:14:51.762Z,225.73
2022-10-31T05:16:53.298Z,144.77
2022-10-31T05:18:55.017Z,170.05
2022-10-31T05:20:56.454Z,88.03
2022-10-31T05:22:59.342Z,59.22
2022-10-31T05:25:00.837Z,54.50
2022-10-31T05:27:02.374Z,46.85
2022-10-31T05:29:03.847Z,43.38
2022-10-31T05:31:05.448Z,41.95
2022-10-31T05:33:06.936Z,48.13
2022-10-31T05:35:10.263Z,72.10
2022-10-31T05:37:11.792Z,76.03
2022-10-31T05:39:13.267Z,66.25
2022-10-31T05:41:14.721Z,53.50
2022-10-31T05:43:16.214Z,57.13
2022-10-31T05:45:19.370Z,57.25
2022-10-31T05:47:20.926Z,49.90
2022-10-31T05:49:23.741Z,58.72
2022-10-31T05:51:25.284Z,124.80
2022-10-31T05:53:26.743Z,203.15
2022-10-31T05:55:29.229Z,173.05
2022-10-31T05:57:33.353Z,99.00
2022-10-31T05:59:34.967Z,91.88
2022-10-31T06:01:36.455Z,75.60
2022-10-31T06:03:38.153Z,69.15
2022-10-31T06:05:39.718Z,67.25
2022-10-31T06:07:41.252Z,58.72
2022-10-31T06:09:42.846Z,54.97
2022-10-31T06:11:44.322Z,45.72
2022-10-31T06:13:45.863Z,40.25
2022-10-31T06:15:47.334Z,39.75
2022-10-31T06:17:59.087Z,51.90
2022-10-31T06:20:00.750Z,66.78
2022-10-31T06:22:02.342Z,96.72
2022-10-31T06:24:04.085Z,141.30
2022-10-31T06:26:05.695Z,117.93
2022-10-31T06:28:07.511Z,65.75
2022-10-31T06:30:09.660Z,51.30
2022-10-31T06:32:12.034Z,80.43
2022-10-31T06:34:18.096Z,280.10
2022-10-31T06:36:19.594Z,55.45
2022-10-31T06:38:21.072Z,46.70
2022-10-31T06:40:23.041Z,58.85
2022-10-31T06:42:24.497Z,64.72
2022-10-31T06:44:25.967Z,60.25
2022-10-31T06:46:27.508Z,56.85
2022-10-31T06:48:29.037Z,44.78
2022-10-31T06:50:30.553Z,41.45
2022-10-31T06:52:31.995Z,49.72
2022-10-31T06:54:33.481Z,39.65
2022-10-31T06:56:34.956Z,27.20
2022-10-31T06:58:36.436Z,20.92
2022-10-31T07:00:38.167Z,23.98
2022-10-31T07:02:39.695Z,17.95
2022-10-31T07:04:41.170Z,16.42
2022-10-31T07:06:42.610Z,16.20
2022-10-31T07:08:44.083Z,18.40
2022-10-31T07:10:53.156Z,17.08
2022-10-31T07:12:59.640Z,15.97
2022-10-31T07:15:01.347Z,17.30
2022-10-31T07:17:02.838Z,15.30
2022-10-31T07:19:04.321Z,17.92
2022-10-31T07:21:06.298Z,16.70
2022-10-31T07:23:09.759Z,17.63
2022-10-31T07:25:11.612Z,17.80
2022-10-31T07:27:13.071Z,20.90
2022-10-31T07:29:14.533Z,18.77
2022-10-31T07:31:16.043Z,55.55
2022-10-31T07:33:17.542Z,21.45
2022-10-31T07:35:21.795Z,15.65
2022-10-31T07:37:23.255Z,20.20
2022-10-31T07:39:24.723Z,26.33
2022-10-31T07:41:26.192Z,17.90
2022-10-31T07:43:27.670Z,16.45
2022-10-31T07:45:29.216Z,18.70
2022-10-31T07:47:30.681Z,16.17
2022-10-31T07:49:32.164Z,15.15
2022-10-31T07:51:33.615Z,15.85
2022-10-31T07:53:35.082Z,16.23
2022-10-31T07:55:37.228Z,16.80
2022-10-31T07:57:38.826Z,16.42
2022-10-31T07:59:40.334Z,16.58
2022-10-31T08:01:41.769Z,16.38
2022-10-31T08:03:43.300Z,16.52
2022-10-31T08:05:48.545Z,16.25
2022-10-31T08:07:50.007Z,14.82
2022-10-31T08:09:51.469Z,16.00
2022-10-31T08:11:53.932Z,16.55
2022-10-31T08:13:55.456Z,16.65
2022-10-31T08:16:04.390Z,16.77
2022-10-31T08:18:14.444Z,16.90
2022-10-31T08:20:15.922Z,15.75
2022-10-31T08:22:17.421Z,16.75
2022-10-31T08:24:19.515Z,17.13
2022-10-31T08:26:20.943Z,19.58
2022-10-31T08:28:22.467Z,21.95
2022-10-31T08:30:26.969Z,26.25
2022-10-31T08:32:28.403Z,20.95
2022-10-31T08:34:29.862Z,19.75
2022-10-31T08:36:31.367Z,22.25
2022-10-31T08:38:32.834Z,19.75
2022-10-31T08:40:36.219Z,27.13
2022-10-31T08:42:37.703Z,17.13
2022-10-31T08:44:39.596Z,29.52
2022-10-31T08:46:41.091Z,21.60
2022-10-31T08:48:42.754Z,12.82
2022-10-31T08:50:45.452Z,13.30
2022-10-31T08:53:04.200Z,12.30
2022-10-31T08:55:07.322Z,12.80
2022-10-31T08:57:08.759Z,13.32
2022-10-31T08:59:10.246Z,12.77
2022-10-31T09:01:12.024Z,12.25
2022-10-31T09:03:18.602Z,12.00
2022-10-31T09:05:20.060Z,12.60
2022-10-31T09:07:21.872Z,12.02
2022-10-31T09:09:23.499Z,11.90
2022-10-31T09:11:24.935Z,11.80
2022-10-31T09:13:28.309Z,12.30
2022-10-31T09:15:30.078Z,11.35
2022-10-31T09:17:31.508Z,12.40
2022-10-31T09:19:32.995Z,10.68
2022-10-31T09:21:34.441Z,11.43
2022-10-31T09:23:35.937Z,11.07
2022-10-31T09:25:37.878Z,10.52
2022-10-31T09:27:39.423Z,11.38
2022-10-31T09:29:41.030Z,11.25
2022-10-31T09:31:45.046Z,10.45
2022-10-31T09:33:46.753Z,10.43
2022-10-31T09:35:48.326Z,10.82
2022-10-31T09:37:55.947Z,10.35
2022-10-31T09:39:57.401Z,11.23
2022-10-31T09:42:36.669Z,10.60
2022-10-31T09:44:56.530Z,11.18
2022-10-31T09:47:33.630Z,11.30
2022-10-31T09:49:42.148Z,12.82
2022-10-31T09:51:52.921Z,11.70
2022-10-31T09:54:03.071Z,10.45
2022-10-31T09:56:15.066Z,9.75
2022-10-31T09:58:24.313Z,9.80
2022-10-31T10:00:25.782Z,9.27
2022-10-31T10:02:40.860Z,10.18
2022-10-31T10:04:48.392Z,9.27
2022-10-31T10:06:52.902Z,8.18
2022-10-31T10:08:54.529Z,8.43
2022-10-31T10:11:33.437Z,8.35
2022-10-31T10:13:45.660Z,8.00
2022-10-31T10:16:10.268Z,7.72
2022-10-31T10:18:37.775Z,8.10
2022-10-31T10:21:05.059Z,7.10
2022-10-31T10:23:35.236Z,7.07
2022-10-31T10:25:40.981Z,7.03
2022-10-31T10:28:09.311Z,7.30
2022-10-31T10:30:18.502Z,7.15
2022-10-31T10:32:36.850Z,7.68
2022-10-31T10:34:44.896Z,7.63
2022-10-31T10:36:53.867Z,7.47
2022-10-31T10:39:03.834Z,9.00
2022-10-31T10:41:18.227Z,8.75
2022-10-31T10:43:24.646Z,7.35
2022-10-31T10:45:44.895Z,7.70
2022-10-31T10:48:01.388Z,8.80
2022-10-31T10:50:11.961Z,7.40
2022-10-31T10:52:44.579Z,7.93
2022-10-31T10:55:17.575Z,7.40
2022-10-31T10:57:32.095Z,7.50
2022-10-31T10:59:33.863Z,7.82
2022-10-31T11:01:35.352Z,7.65
2022-10-31T11:03:36.987Z,7.80
2022-10-31T11:05:51.705Z,7.25
2022-10-31T11:07:53.297Z,7.10
2022-10-31T11:10:04.901Z,8.05
2022-10-31T11:12:21.927Z,7.50
2022-10-31T11:14:24.349Z,6.75
2022-10-31T11:16:25.746Z,7.18
2022-10-31T11:18:31.317Z,7.43
2022-10-31T11:20:36.793Z,7.80
2022-10-31T11:22:38.574Z,7.63
2022-10-31T11:24:41.934Z,7.10
2022-10-31T11:26:45.917Z,7.95
2022-10-31T11:29:00.273Z,7.00
2022-10-31T11:31:12.632Z,8.18
2022-10-31T11:33:21.251Z,7.47
2022-10-31T11:35:24.974Z,7.57
2022-10-31T11:37:29.250Z,11.20
2022-10-31T11:39:30.998Z,13.13
2022-10-31T11:41:39.491Z,8.18
2022-10-31T11:43:49.374Z,8.13
2022-10-31T11:45:51.363Z,8.05
2022-10-31T11:47:59.647Z,8.15
2022-10-31T11:50:10.334Z,8.05
2022-10-31T11:52:16.652Z,8.50
2022-10-31T11:54:30.427Z,8.38
2022-10-31T11:56:42.678Z,9.80
2022-10-31T11:58:44.222Z,8.73
2022-10-31T12:00:51.539Z,9.00
2022-10-31T12:03:23.542Z,9.77
2022-10-31T12:05:33.817Z,8.38
2022-10-31T12:07:35.374Z,9.80
2022-10-31T12:09:38.843Z,8.82
2022-10-31T12:12:01.447Z,8.68
2022-10-31T12:14:27.873Z,9.38
2022-10-31T12:16:41.084Z,9.60
2022-10-31T12:19:04.507Z,10.95
2022-10-31T12:21:08.872Z,8.85
2022-10-31T12:23:54.763Z,10.32
2022-10-31T12:26:40.375Z,9.35
2022-10-31T12:28:56.018Z,10.07
2022-10-31T12:31:21.106Z,10.23
2022-10-31T12:33:49.665Z,11.38
2022-10-31T12:35:55.811Z,10.27
2022-10-31T12:38:36.374Z,11.05
2022-10-31T12:40:40.875Z,10.20
2022-10-31T12:43:14.651Z,10.65
2022-10-31T12:45:43.428Z,10.18
2022-10-31T12:48:32.857Z,10.35
2022-10-31T12:50:56.163Z,10.30
2022-10-31T12:53:06.171Z,10.30
2022-10-31T12:55:25.148Z,10.60
2022-10-31T12:57:37.388Z,10.25
2022-10-31T12:59:46.854Z,10.50
2022-10-31T13:02:28.225Z,10.48
2022-10-31T13:04:51.735Z,9.98
2022-10-31T13:07:03.119Z,10.15
2022-10-31T13:09:11.210Z,10.18
2022-10-31T13:11:19.424Z,9.90
2022-10-31T13:13:34.418Z,9.50
2022-10-31T13:15:47.958Z,9.73
2022-10-31T13:18:02.179Z,9.75
2022-10-31T13:20:18.940Z,10.73
2022-10-31T13:22:25.874Z,10.82
2022-10-31T13:24:33.328Z,11.48
2022-10-31T13:26:43.174Z,34.90
2022-10-31T13:30:50.060Z,29.90
2022-10-31T13:33:06.476Z,17.75
2022-10-31T13:35:22.682Z,15.88
2022-10-31T13:37:35.226Z,12.13
2022-10-31T13:39:46.230Z,14.23
2022-10-31T13:42:03.478Z,13.85
2022-10-31T13:44:19.635Z,21.83
2022-10-31T13:46:27.047Z,29.55
2022-10-31T13:48:28.458Z,13.00
2022-10-31T13:50:32.038Z,13.95
2022-10-31T13:52:33.631Z,12.23
2022-10-31T13:54:37.201Z,10.30
2022-10-31T13:56:40.929Z,10.02
2022-10-31T13:58:58.683Z,11.98
2022-10-31T14:01:04.460Z,18.58
2022-10-31T14:03:05.987Z,13.07
2022-10-31T14:05:25.831Z,12.77
2022-10-31T14:07:28.854Z,10.70
2022-10-31T14:09:32.312Z,10.85
2022-10-31T14:11:36.295Z,11.07
2022-10-31T14:13:45.319Z,10.00
2022-10-31T14:15:56.363Z,9.65
2022-10-31T14:18:01.354Z,10.18
2022-10-31T14:20:12.205Z,10.68
2022-10-31T14:22:23.081Z,11.15
2022-10-31T14:24:24.507Z,10.13
2022-10-31T14:26:31.905Z,9.20
2022-10-31T14:28:35.872Z,10.20
2022-10-31T14:30:37.450Z,10.40
2022-10-31T14:32:39.007Z,9.95
2022-10-31T14:34:57.283Z,9.05
2022-10-31T14:37:20.302Z,10.73
2022-10-31T14:39:25.235Z,9.35
2022-10-31T14:41:53.129Z,9.80
2022-10-31T14:44:12.707Z,9.45
2022-10-31T14:46:34.531Z,11.63
2022-10-31T14:48:52.318Z,12.15
2022-10-31T14:50:57.032Z,19.55
2022-10-31T14:53:03.155Z,12.82
2022-10-31T14:55:11.166Z,17.02
2022-10-31T14:57:23.315Z,17.95
2022-10-31T14:59:29.445Z,17.45
2022-10-31T15:01:34.475Z,35.72
2022-10-31T15:04:10.122Z,18.90
2022-10-31T15:06:17.565Z,14.38
2022-10-31T15:08:31.875Z,33.58
2022-10-31T15:10:38.125Z,23.90
2022-10-31T15:12:39.640Z,21.15
2022-10-31T15:14:41.318Z,17.33
2022-10-31T15:16:44.239Z,15.57
2022-10-31T15:18:50.571Z,20.67
2022-10-31T15:20:53.659Z,20.95
2022-10-31T15:22:57.494Z,18.35
2022-10-31T15:24:59.177Z,14.52
2022-10-31T15:27:04.920Z,14.15
2022-10-31T15:29:14.640Z,15.63
2022-10-31T15:31:17.960Z,34.15
2022-10-31T15:33:26.371Z,54.03
2022-10-31T15:35:30.943Z,18.30
2022-10-31T15:37:32.427Z,24.60
2022-10-31T15:39:34.512Z,54.10
2022-10-31T15:41:56.970Z,54.15
2022-10-31T15:44:21.016Z,44.00
2022-10-31T15:46:22.942Z,23.45
2022-10-31T15:48:25.989Z,27.25
2022-10-31T15:50:38.180Z,29.27
2022-10-31T15:52:47.091Z,22.85
2022-10-31T15:54:55.286Z,26.08
2022-10-31T15:56:56.886Z,35.25
2022-10-31T15:59:00.980Z,32.10
2022-10-31T16:01:06.368Z,26.98
2022-10-31T16:03:19.918Z,27.42
2022-10-31T16:05:21.496Z,39.80
2022-10-31T16:07:24.092Z,34.13
2022-10-31T16:09:25.616Z,30.48
2022-10-31T16:11:36.684Z,33.78
2022-10-31T16:14:00.056Z,28.13
2022-10-31T16:16:34.105Z,32.97
2022-10-31T16:18:38.299Z,38.90
2022-10-31T16:20:39.791Z,40.88
2022-10-31T16:22:42.131Z,31.05
2022-10-31T16:24:48.545Z,36.03
2022-10-31T16:26:53.642Z,38.30
2022-10-31T16:29:03.358Z,68.90
2022-10-31T16:31:16.584Z,55.97
2022-10-31T16:33:37.143Z,50.45
2022-10-31T16:35:39.957Z,46.58
2022-10-31T16:37:41.794Z,56.33
2022-10-31T16:39:43.306Z,48.58
2022-10-31T16:41:47.528Z,74.68
2022-10-31T16:43:52.407Z,64.88
2022-10-31T16:45:54.160Z,55.90
2022-10-31T16:48:04.414Z,59.05
2022-10-31T16:50:13.712Z,46.00
2022-10-31T16:52:16.035Z,44.90
2022-10-31T16:54:17.695Z,52.28
2022-10-31T16:56:29.290Z,64.07
2022-10-31T16:58:34.037Z,54.08
2022-10-31T17:00:35.505Z,59.20
2022-10-31T17:02:37.870Z,85.05
2022-10-31T17:04:39.390Z,67.97
2022-10-31T17:06:41.455Z,118.25
2022-10-31T17:08:43.048Z,107.35
2022-10-31T17:10:46.591Z,84.63
2022-10-31T17:12:50.244Z,92.60
2022-10-31T17:14:52.986Z,90.97
2022-10-31T17:16:56.965Z,70.50
2022-10-31T17:18:58.441Z,92.22
2022-10-31T17:21:02.610Z,108.65
2022-10-31T17:23:04.595Z,54.58
2022-10-31T17:25:06.992Z,36.97
2022-10-31T17:27:08.615Z,40.63
2022-10-31T17:29:10.119Z,44.38
2022-10-31T17:31:33.232Z,49.25
2022-10-31T17:33:34.720Z,66.00
2022-10-31T17:35:36.863Z,59.25
2022-10-31T17:37:39.077Z,115.35
2022-10-31T17:39:40.635Z,134.35
2022-10-31T17:41:42.244Z,125.05
2022-10-31T17:43:43.938Z,253.70
2022-10-31T17:45:45.536Z,206.30
2022-10-31T17:47:49.089Z,216.38
2022-10-31T17:49:50.575Z,153.43
2022-10-31T17:51:52.038Z,165.45
2022-10-31T17:53:53.473Z,94.03
2022-10-31T17:55:59.582Z,167.20
2022-10-31T17:58:01.083Z,130.30
2022-10-31T18:00:05.886Z,176.73
2022-10-31T18:02:09.525Z,148.68
2022-10-31T18:04:11.188Z,209.77
2022-10-31T18:06:14.563Z,370.50
2022-10-31T18:08:16.043Z,384.60
2022-10-31T18:10:17.583Z,433.27
2022-10-31T18:12:19.024Z,603.80
2022-10-31T18:14:20.891Z,240.70
2022-10-31T18:16:23.139Z,224.02
2022-10-31T18:18:24.642Z,190.93
2022-10-31T18:20:26.170Z,379.65
2022-10-31T18:22:27.840Z,284.58
2022-10-31T18:24:29.946Z,257.88
2022-10-31T18:26:31.471Z,164.48
2022-10-31T18:28:33.480Z,162.90
2022-10-31T18:30:39.415Z,162.23
2022-10-31T18:32:40.931Z,131.50
2022-10-31T18:34:42.400Z,67.30
2022-10-31T18:36:44.503Z,74.05
2022-10-31T18:38:46.090Z,90.60
2022-10-31T18:40:47.681Z,102.75
2022-10-31T18:42:49.378Z,192.02
2022-10-31T18:44:50.854Z,188.35
2022-10-31T18:46:52.427Z,149.68
2022-10-31T18:48:57.391Z,155.63
2022-10-31T18:53:05.949Z,143.23
2022-10-31T18:55:07.898Z,126.50
2022-10-31T18:57:09.382Z,138.43
2022-10-31T18:59:11.499Z,137.65
2022-10-31T19:01:14.709Z,139.40
2022-10-31T19:03:18.062Z,150.05
2022-10-31T19:05:22.254Z,165.80
2022-10-31T19:07:26.626Z,210.02
2022-10-31T19:09:30.815Z,149.00
2022-10-31T19:11:33.910Z,126.72
2022-10-31T19:13:36.370Z,155.90
2022-10-31T19:15:37.963Z,175.13
2022-10-31T19:17:39.577Z,152.23
2022-10-31T19:19:41.231Z,165.18
2022-10-31T19:21:42.856Z,109.45
2022-10-31T19:23:45.438Z,101.00
2022-10-31T19:25:46.928Z,85.75
2022-10-31T19:27:48.473Z,66.22
2022-10-31T19:29:49.951Z,50.95
2022-10-31T19:31:51.387Z,158.30
2022-10-31T19:33:52.938Z,132.73
2022-10-31T19:35:59.172Z,161.95
2022-10-31T19:38:00.885Z,130.50
2022-10-31T19:40:03.704Z,158.60
2022-10-31T19:42:05.228Z,103.05
2022-10-31T19:44:09.320Z,102.38
2022-10-31T19:46:22.433Z,150.27
2022-10-31T19:48:36.903Z,111.15
2022-10-31T19:50:38.368Z,80.03
2022-10-31T19:52:39.806Z,66.10
2022-10-31T19:54:41.279Z,81.93
2022-10-31T19:56:42.830Z,60.85
2022-10-31T19:58:44.683Z,47.25
2022-10-31T20:00:46.298Z,33.13
2022-10-31T20:02:47.799Z,34.17
2022-10-31T20:04:49.303Z,85.82
2022-10-31T20:06:50.844Z,67.55
2022-10-31T20:08:52.770Z,82.70
2022-10-31T20:11:02.335Z,48.60
2022-10-31T20:13:04.150Z,61.30
2022-10-31T20:15:06.539Z,85.18
2022-10-31T20:17:09.044Z,42.03
2022-10-31T20:19:10.738Z,49.58
2022-10-31T20:21:26.575Z,32.05
2022-10-31T20:23:28.045Z,29.02
2022-10-31T20:25:31.718Z,32.90
2022-10-31T20:27:33.287Z,43.47
2022-10-31T20:29:34.991Z,33.22
2022-10-31T20:31:37.080Z,37.75
2022-10-31T20:33:39.068Z,47.38
2022-10-31T20:35:41.600Z,33.90
2022-10-31T20:37:43.068Z,30.40
2022-10-31T20:39:44.499Z,69.40
2022-10-31T20:41:45.957Z,474.13
2022-10-31T20:43:48.251Z,146.38
2022-10-31T20:45:49.699Z,126.68
2022-10-31T20:47:51.235Z,90.18
2022-10-31T20:49:52.799Z,120.25
2022-10-31T20:51:54.251Z,82.70
2022-10-31T20:53:57.119Z,87.90
2022-10-31T20:56:07.052Z,98.43
2022-10-31T20:58:09.103Z,90.72
2022-10-31T21:00:11.733Z,64.97
2022-10-31T21:02:13.437Z,52.55
2022-10-31T21:04:15.125Z,42.83
2022-10-31T21:06:17.873Z,55.17
2022-10-31T21:08:19.345Z,62.95
2022-10-31T21:10:20.836Z,58.03
2022-10-31T21:12:22.262Z,91.57
2022-10-31T21:14:23.728Z,91.10
2022-10-31T21:16:35.756Z,60.85
2022-10-31T21:18:38.874Z,90.78
2022-10-31T21:20:44.314Z,78.95
2022-10-31T21:22:45.795Z,110.22
2022-10-31T21:24:47.251Z,83.38
2022-10-31T21:26:52.003Z,76.05
2022-10-31T21:28:57.343Z,66.18
2022-10-31T21:31:00.047Z,53.92
2022-10-31T21:33:01.955Z,53.47
2022-10-31T21:35:03.826Z,57.65
2022-10-31T21:37:05.989Z,58.45
2022-10-31T21:39:09.156Z,52.10
2022-10-31T21:41:13.739Z,70.75
2022-10-31T21:43:15.593Z,59.35
2022-10-31T21:45:17.209Z,56.83
2022-10-31T21:47:18.744Z,65.05
2022-10-31T21:49:20.214Z,53.85
2022-10-31T21:51:24.751Z,54.30
2022-10-31T21:53:44.956Z,50.25
2022-10-31T21:55:46.448Z,55.33
2022-10-31T21:57:47.938Z,52.85
2022-10-31T21:59:49.399Z,49.85
2022-10-31T22:01:51.595Z,50.22
2022-10-31T22:03:53.678Z,48.17
2022-10-31T22:05:59.738Z,46.40
2022-10-31T22:08:02.703Z,48.20
2022-10-31T22:10:04.662Z,44.72
2022-10-31T22:12:09.033Z,45.40
2022-10-31T22:14:15.107Z,50.88
2022-10-31T22:16:18.569Z,51.00
2022-10-31T22:18:20.117Z,50.45
2022-10-31T22:20:21.651Z,50.28
2022-10-31T22:22:23.127Z,48.78
2022-10-31T22:24:24.650Z,52.92
2022-10-31T22:26:27.216Z,51.10
2022-10-31T22:28:33.060Z,48.25
2022-10-31T22:30:38.521Z,43.15
2022-10-31T22:32:39.989Z,40.47
2022-10-31T22:34:41.517Z,40.08
2022-10-31T22:36:44.531Z,53.63
2022-10-31T22:38:46.680Z,38.17
2022-10-31T22:40:48.341Z,41.90
2022-10-31T22:42:49.849Z,46.17
2022-10-31T22:44:51.345Z,58.88
2022-10-31T22:46:52.819Z,54.08
2022-10-31T22:48:59.662Z,59.30
2022-10-31T22:51:09.350Z,53.97
2022-10-31T22:53:11.632Z,61.25
2022-10-31T22:55:15.391Z,63.72
2022-10-31T22:57:16.998Z,67.00
2022-10-31T22:59:18.567Z,51.97
2022-10-31T23:01:31.003Z,63.17
2022-10-31T23:03:32.577Z,58.08
2022-10-31T23:05:34.031Z,57.90
2022-10-31T23:07:35.522Z,67.38
2022-10-31T23:09:36.950Z,80.65
2022-10-31T23:11:39.594Z,62.50
2022-10-31T23:13:59.503Z,62.63
2022-10-31T23:16:01.248Z,56.35
2022-10-31T23:18:03.008Z,69.72
2022-10-31T23:20:08.388Z,67.97
2022-10-31T23:22:09.994Z,66.85
2022-10-31T23:24:12.641Z,71.00
2022-10-31T23:26:32.735Z,70.57
2022-10-31T23:28:34.185Z,80.72
2022-10-31T23:30:35.676Z,65.10
2022-10-31T23:32:37.906Z,76.63
2022-10-31T23:34:39.573Z,76.18
2022-10-31T23:36:41.017Z,82.28
2022-10-31T23:38:42.639Z,106.53
2022-10-31T23:40:44.080Z,112.68
2022-10-31T23:42:45.638Z,120.30
2022-10-31T23:44:47.262Z,144.80
2022-10-31T23:46:48.841Z,156.02
2022-10-31T23:48:50.840Z,167.32
2022-10-31T23:50:52.327Z,132.18
2022-10-31T23:52:53.850Z,116.72
2022-10-31T23:54:55.325Z,123.93
2022-10-31T23:56:58.218Z,123.40
2022-10-31T23:58:59.766Z,130.23
